Eagle County Regional Airport
KEGE : now visible

Airfield :











YOU CAN JOIN US ON...

 
LOGIN :

Register | Disclaimer

   EN    FR    IT 

 









Legend :    VFR   Marginal VFR   IFR   Intensive IFR   Very Intensive IFR
Visi :
Ceiling :
>= 8 km
>= 3000ft
5 to 8 km
1000 to 3000 ft
1500m to 5 km
500 to 1000 ft
800 to 1500m
200 to 500 ft
< 800m
< 200 ft
Symbols :   Thunderstorms  Fog  Heavy snow  Heavy precipitations  Wind > 20 kt






- Airport Elevation : 6548 ft
- IATA code : EGE


KEGE - Eagle County Regional

CURRENT METAR :
  • 031256Z 05003KT 10SM -RA BKN090 OVC110 14/13 A3038 RMK AO2 RAE09B39 SLP231 T01440128 PNO $

EXPIRED METARs :
  • 031156Z AUTO 00000KT 10SM -RA OVC095 14/12 A3037 RMK AO2 RAB28 SLP224 6//// 7//// T01440122 10167 20139 53001 PNO $
  • 031056Z AUTO 32003KT 10SM OVC110 15/12 A3036 RMK AO2 SLP217 T01500122 PNO $

TAF KEGE
Valid from the 03 at 12:00 until the 04 at 12:00 UTC


031132Z 0312/0412 VRB03KT P6SM VCSH OVC110
TEMPO 0312/0315 -SHRA BKN070
FM031500 VRB04KT P6SM VCTS SCT050CB BKN080
FM031800 VRB04KT P6SM VCTS SCT050CB OVC080
TEMPO 0318/0321 VRB15G25KT -TSRA BKN050CB
FM032100 36008KT P6SM VCTS SCT045CB OVC080
FM040100 03008KT P6SM VCTS SCT050CB OVC070
FM040500 20005KT P6SM SCT060 BKN090
KZDV FIR / North America



MET'MAP, your aeronautical weather chart ! - Copyright ORBIFLY December 2007 - Disclaimer

ORBIFLY MET'MAP TEAM :

Programming & Development : Alexandra Zaïnal
Concept & original design : Baudouin d'Aumeries
Assistance for programming : Marc-Olivier Méhu
Technical & hardware support : Manuel Goepfert

Contact : metmap@orbifly.com




SOURCES & CREDITS :

   NOAA       Earth
Advisory